28°C Temp
24°C Dewpoint
79% Humidity
Temperature
10 KM/H
6 MPH
5 KTS
80°
Due East

Wind Speed
Partly Cloudy
Conditions
Pressure 1010 (hPa) - 29.82 (in)
Visibility 6.2 (mi) - 10.0 (km)

Current Conditions
WSSL
Location Seletar 6km (3.2mi)
Metar :WSSL 171200Z 08005KT 9999 FEW018 SCT280 BKN300 28/24 Q1010
Sat 17th November 20:00 pm

Airport
  Metar Aviation API Data Provided by https://www.checkwx.com/ PHP scripts by weather34.com ©2018